createdAt,value
2018-11-28T00:00:22.821Z,34.40
2018-11-28T00:02:51.322Z,24.40
2018-11-28T00:05:19.901Z,25.53
2018-11-28T00:07:48.446Z,26.97
2018-11-28T00:10:18.063Z,26.27
2018-11-28T00:12:46.518Z,28.07
2018-11-28T00:15:16.166Z,27.43
2018-11-28T00:17:44.646Z,28.50
2018-11-28T00:20:15.418Z,28.77
2018-11-28T00:22:44.365Z,23.67
2018-11-28T00:25:13.550Z,26.23
2018-11-28T00:27:42.057Z,27.07
2018-11-28T00:30:18.703Z,25.47
2018-11-28T00:32:47.136Z,23.80
2018-11-28T00:35:16.810Z,25.57
2018-11-28T00:37:45.380Z,26.73
2018-11-28T00:40:15.972Z,25.87
2018-11-28T00:42:44.425Z,25.00
2018-11-28T00:45:15.592Z,23.47
2018-11-28T00:47:44.102Z,28.17
2018-11-28T00:50:14.573Z,25.77
2018-11-28T00:52:43.057Z,30.47
2018-11-28T00:55:14.497Z,26.47
2018-11-28T00:57:42.974Z,28.43
2018-11-28T01:00:19.585Z,25.47
2018-11-28T01:02:48.744Z,29.90
2018-11-28T01:05:17.350Z,26.63
2018-11-28T01:07:46.793Z,27.80
2018-11-28T01:10:16.641Z,29.03
2018-11-28T01:12:45.255Z,27.10
2018-11-28T01:15:14.851Z,25.47
2018-11-28T01:17:43.399Z,32.00
2018-11-28T01:20:13.517Z,29.90
2018-11-28T01:22:42.023Z,26.43
2018-11-28T01:25:14.505Z,27.27
2018-11-28T01:27:42.988Z,25.90
2018-11-28T01:30:14.924Z,26.27
2018-11-28T01:32:43.815Z,22.60
2018-11-28T01:35:14.278Z,27.27
2018-11-28T01:37:42.915Z,26.97
2018-11-28T01:40:15.122Z,27.60
2018-11-28T01:42:43.647Z,25.90
2018-11-28T01:45:13.377Z,28.13
2018-11-28T01:47:42.185Z,29.13
2018-11-28T01:50:12.534Z,28.73
2018-11-28T01:52:41.033Z,30.23
2018-11-28T01:55:11.498Z,26.53
2018-11-28T01:57:40.071Z,24.73
2018-11-28T02:00:11.032Z,25.47
2018-11-28T02:02:39.543Z,29.37
2018-11-28T02:05:09.890Z,30.17
2018-11-28T02:07:38.393Z,27.90
2018-11-28T02:10:11.980Z,29.10
2018-11-28T02:12:40.853Z,26.47
2018-11-28T02:15:10.925Z,24.87
2018-11-28T02:17:39.401Z,29.00
2018-11-28T02:20:11.182Z,27.20
2018-11-28T02:22:39.722Z,26.73
2018-11-28T02:25:09.530Z,23.97
2018-11-28T02:27:38.054Z,26.83
2018-11-28T02:30:10.557Z,26.60
2018-11-28T02:32:39.244Z,28.50
2018-11-28T02:35:10.224Z,26.80
2018-11-28T02:37:39.267Z,24.27
2018-11-28T02:40:09.582Z,29.77
2018-11-28T02:42:38.122Z,29.40
2018-11-28T02:45:13.155Z,31.37
2018-11-28T02:47:41.615Z,25.00
2018-11-28T02:50:11.100Z,27.43
2018-11-28T02:52:39.710Z,29.90
2018-11-28T02:55:13.173Z,29.40
2018-11-28T02:57:42.554Z,27.70
2018-11-28T03:00:15.802Z,28.83
2018-11-28T03:02:44.371Z,25.83
2018-11-28T03:05:13.330Z,25.50
2018-11-28T03:07:41.830Z,25.60
2018-11-28T03:10:14.710Z,27.43
2018-11-28T03:12:43.263Z,25.37
2018-11-28T03:15:14.751Z,27.80
2018-11-28T03:17:43.349Z,25.17
2018-11-28T03:20:12.589Z,27.93
2018-11-28T03:22:41.086Z,24.40
2018-11-28T03:25:10.886Z,27.03
2018-11-28T03:27:39.352Z,25.07
2018-11-28T03:30:14.262Z,27.13
2018-11-28T03:32:42.740Z,23.27
2018-11-28T03:35:13.544Z,27.40
2018-11-28T03:37:42.079Z,24.10
2018-11-28T03:40:11.549Z,24.07
2018-11-28T03:42:40.038Z,24.67
2018-11-28T03:45:12.568Z,26.20
2018-11-28T03:47:41.424Z,24.93
2018-11-28T03:50:11.250Z,24.83
2018-11-28T03:52:40.287Z,27.50
2018-11-28T03:55:11.732Z,28.37
2018-11-28T03:57:40.267Z,28.20
2018-11-28T04:00:14.001Z,27.53
2018-11-28T04:02:42.443Z,26.17
2018-11-28T04:05:11.498Z,25.90
2018-11-28T04:07:39.951Z,32.13
2018-11-28T04:10:09.870Z,25.10
2018-11-28T04:12:38.662Z,28.13
2018-11-28T04:15:18.448Z,30.10
2018-11-28T04:17:46.906Z,29.57
2018-11-28T04:20:17.697Z,26.10
2018-11-28T04:22:46.259Z,29.50
2018-11-28T04:25:15.585Z,26.10
2018-11-28T04:27:44.074Z,28.80
2018-11-28T04:30:23.390Z,26.70
2018-11-28T04:32:52.815Z,29.77
2018-11-28T04:35:21.419Z,28.50
2018-11-28T04:37:49.955Z,31.33
2018-11-28T04:40:21.134Z,29.63
2018-11-28T04:42:50.016Z,26.67
2018-11-28T04:45:20.357Z,29.90
2018-11-28T04:47:48.943Z,28.20
2018-11-28T04:50:17.466Z,32.43
2018-11-28T04:52:46.033Z,30.10
2018-11-28T04:55:17.084Z,28.37
2018-11-28T04:57:45.643Z,30.50
2018-11-28T05:00:17.666Z,32.20
2018-11-28T05:02:46.149Z,31.07
2018-11-28T05:05:15.121Z,29.60
2018-11-28T05:07:45.381Z,31.23
2018-11-28T05:10:22.663Z,28.50
2018-11-28T05:12:51.612Z,32.83
2018-11-28T05:15:21.218Z,29.53
2018-11-28T05:17:51.721Z,38.43
2018-11-28T05:20:31.103Z,35.73
2018-11-28T05:22:59.576Z,36.23
2018-11-28T05:25:28.409Z,38.30
2018-11-28T05:27:57.966Z,39.40
2018-11-28T05:30:28.055Z,36.57
2018-11-28T05:32:56.578Z,31.97
2018-11-28T05:35:30.015Z,36.63
2018-11-28T05:37:58.513Z,35.90
2018-11-28T05:40:28.035Z,33.20
2018-11-28T05:42:56.970Z,33.50
2018-11-28T05:45:26.146Z,35.60
2018-11-28T05:47:54.880Z,36.97
2018-11-28T05:50:23.894Z,35.90
2018-11-28T05:52:52.403Z,32.80
2018-11-28T05:55:21.954Z,35.07
2018-11-28T05:57:50.541Z,31.13
2018-11-28T06:00:23.913Z,31.03
2018-11-28T06:02:52.393Z,30.97
2018-11-28T06:05:20.924Z,30.40
2018-11-28T06:07:49.470Z,29.47
2018-11-28T06:10:17.949Z,33.60
2018-11-28T06:12:46.451Z,33.47
2018-11-28T06:15:14.986Z,29.97
2018-11-28T06:17:43.487Z,33.17
2018-11-28T06:20:13.219Z,28.30
2018-11-28T06:22:41.678Z,30.43
2018-11-28T06:25:15.842Z,32.20
2018-11-28T06:27:40.302Z,29.83
2018-11-28T06:30:11.370Z,33.33
2018-11-28T06:32:39.917Z,32.53
2018-11-28T06:35:09.330Z,27.90
2018-11-28T06:37:37.830Z,34.13
2018-11-28T06:40:11.918Z,30.70
2018-11-28T06:42:40.470Z,29.17
2018-11-28T06:45:11.286Z,31.40
2018-11-28T06:47:39.776Z,31.00
2018-11-28T06:50:13.504Z,30.80
2018-11-28T06:52:42.297Z,27.70
2018-11-28T06:55:14.058Z,28.23
2018-11-28T06:57:42.547Z,26.37
2018-11-28T07:00:14.226Z,28.43
2018-11-28T07:02:42.762Z,26.80
2018-11-28T07:05:12.069Z,28.57
2018-11-28T07:07:40.640Z,26.97
2018-11-28T07:10:12.860Z,28.57
2018-11-28T07:12:41.376Z,28.63
2018-11-28T07:15:13.377Z,27.50
2018-11-28T07:17:42.518Z,28.73
2018-11-28T07:20:12.933Z,27.53
2018-11-28T07:22:41.611Z,27.57
2018-11-28T07:25:14.358Z,28.50
2018-11-28T07:27:45.406Z,26.77
2018-11-28T07:30:12.844Z,26.77
2018-11-28T07:32:41.377Z,24.23
2018-11-28T07:35:10.980Z,28.53
2018-11-28T07:37:39.797Z,28.20
2018-11-28T07:40:17.416Z,27.83
2018-11-28T07:42:58.786Z,30.30
2018-11-28T07:45:27.987Z,31.07
2018-11-28T07:47:56.834Z,26.73
2018-11-28T07:50:26.289Z,25.00
2018-11-28T07:52:55.122Z,23.97
2018-11-28T07:55:23.649Z,24.87
2018-11-28T07:57:52.549Z,25.23
2018-11-28T08:00:21.115Z,26.20
2018-11-28T08:02:49.647Z,23.97
2018-11-28T08:05:18.135Z,24.30
2018-11-28T08:07:46.771Z,25.90
2018-11-28T08:10:23.526Z,25.00
2018-11-28T08:13:01.918Z,22.67
2018-11-28T08:15:30.396Z,22.23
2018-11-28T08:17:59.468Z,22.00
2018-11-28T08:20:28.469Z,24.40
2018-11-28T08:22:56.955Z,25.90
2018-11-28T08:25:28.025Z,22.80
2018-11-28T08:27:54.829Z,27.00
2018-11-28T08:30:24.412Z,25.87
2018-11-28T08:32:53.528Z,23.20
2018-11-28T08:35:21.950Z,24.57
2018-11-28T08:37:50.517Z,24.27
2018-11-28T08:40:22.626Z,23.60
2018-11-28T08:42:51.178Z,22.33
2018-11-28T08:45:20.936Z,24.40
2018-11-28T08:47:52.065Z,23.30
2018-11-28T08:50:30.657Z,23.10
2018-11-28T08:52:59.083Z,24.73
2018-11-28T08:55:27.600Z,27.13
2018-11-28T08:57:56.160Z,25.27
2018-11-28T09:00:26.016Z,25.70
2018-11-28T09:02:55.810Z,24.60
2018-11-28T09:05:24.261Z,24.20
2018-11-28T09:07:52.719Z,23.97
2018-11-28T09:10:21.336Z,26.50
2018-11-28T09:12:50.680Z,23.53
2018-11-28T09:15:21.406Z,26.13
2018-11-28T09:17:50.513Z,27.37
2018-11-28T09:20:19.155Z,25.83
2018-11-28T09:22:47.756Z,25.40
2018-11-28T09:25:18.806Z,24.90
2018-11-28T09:27:50.460Z,23.10
2018-11-28T09:30:20.432Z,23.00
2018-11-28T09:32:49.809Z,19.73
2018-11-28T09:35:18.677Z,23.73
2018-11-28T09:37:47.173Z,22.17
2018-11-28T09:40:18.578Z,22.50
2018-11-28T09:42:47.544Z,22.67
2018-11-28T09:45:17.066Z,25.73
2018-11-28T09:47:45.711Z,22.30
2018-11-28T09:50:17.889Z,24.23
2018-11-28T09:52:46.402Z,24.00
2018-11-28T09:55:16.270Z,24.37
2018-11-28T09:57:44.819Z,26.10
2018-11-28T10:00:21.395Z,23.17
2018-11-28T10:02:50.762Z,26.77
2018-11-28T10:05:23.261Z,22.43
2018-11-28T10:07:51.786Z,22.17
2018-11-28T10:10:21.137Z,21.97
2018-11-28T10:12:49.769Z,22.43
2018-11-28T10:15:20.013Z,25.60
2018-11-28T10:17:48.505Z,22.97
2018-11-28T10:20:17.809Z,22.90
2018-11-28T10:22:46.961Z,24.87
2018-11-28T10:25:17.492Z,25.30
2018-11-28T10:27:47.205Z,25.10
2018-11-28T10:30:19.201Z,23.73
2018-11-28T10:32:48.230Z,23.70
2018-11-28T10:35:16.758Z,22.73
2018-11-28T10:37:45.223Z,22.97
2018-11-28T10:40:16.128Z,22.70
2018-11-28T10:42:44.839Z,20.97
2018-11-28T10:45:14.742Z,23.77
2018-11-28T10:47:43.241Z,22.13
2018-11-28T10:50:14.854Z,22.97
2018-11-28T10:52:43.660Z,21.93
2018-11-28T10:55:15.505Z,25.23
2018-11-28T10:57:44.630Z,21.57
2018-11-28T11:00:25.361Z,22.20
2018-11-28T11:02:59.050Z,22.43
2018-11-28T11:05:33.018Z,18.73
2018-11-28T11:08:06.929Z,21.53
2018-11-28T11:10:41.594Z,18.93
2018-11-28T11:13:15.803Z,20.17
2018-11-28T11:15:48.471Z,19.93
2018-11-28T11:18:17.793Z,21.07
2018-11-28T11:20:46.979Z,19.93
2018-11-28T11:23:15.591Z,20.77
2018-11-28T11:25:44.403Z,20.97
2018-11-28T11:28:12.905Z,18.90
2018-11-28T11:30:42.445Z,18.77
2018-11-28T11:33:11.077Z,19.43
2018-11-28T11:35:39.606Z,21.93
2018-11-28T11:38:08.156Z,18.37
2018-11-28T11:40:36.629Z,20.60
2018-11-28T11:43:05.558Z,19.73
2018-11-28T11:45:34.772Z,20.30
2018-11-28T11:48:03.261Z,19.50
2018-11-28T11:50:31.830Z,21.07
2018-11-28T11:53:00.410Z,20.10
2018-11-28T11:55:28.891Z,18.33
2018-11-28T11:57:58.922Z,18.70
2018-11-28T12:00:27.743Z,18.67
2018-11-28T12:03:08.861Z,17.57
2018-11-28T12:05:37.464Z,18.60
2018-11-28T12:08:06.726Z,18.07
2018-11-28T12:10:36.164Z,18.23
2018-11-28T12:13:04.782Z,17.97
2018-11-28T12:15:33.328Z,17.00
2018-11-28T12:18:01.916Z,15.27
2018-11-28T12:20:35.338Z,18.27
2018-11-28T12:23:03.950Z,16.03
2018-11-28T12:25:32.531Z,16.60
2018-11-28T12:28:00.974Z,15.97
2018-11-28T12:30:29.425Z,15.33
2018-11-28T12:32:58.566Z,14.47
2018-11-28T12:35:27.363Z,18.47
2018-11-28T12:37:55.822Z,16.83
2018-11-28T12:40:24.270Z,15.87
2018-11-28T12:42:53.434Z,17.43
2018-11-28T12:45:22.096Z,14.73
2018-11-28T12:47:50.819Z,13.73
2018-11-28T12:50:22.207Z,16.23
2018-11-28T12:52:51.264Z,15.03
2018-11-28T12:55:20.397Z,15.27
2018-11-28T12:57:49.126Z,14.80
2018-11-28T13:00:20.444Z,14.80
2018-11-28T13:02:48.953Z,14.77
2018-11-28T13:05:20.296Z,15.10
2018-11-28T13:07:48.841Z,13.03
2018-11-28T13:10:27.029Z,13.53
2018-11-28T13:12:56.181Z,13.40
2018-11-28T13:15:26.331Z,15.17
2018-11-28T13:17:54.890Z,14.90
2018-11-28T13:20:24.802Z,13.27
2018-11-28T13:22:54.640Z,12.80
2018-11-28T13:25:28.057Z,12.77
2018-11-28T13:27:56.797Z,13.00
2018-11-28T13:30:26.211Z,11.90
2018-11-28T13:32:55.468Z,12.80
2018-11-28T13:35:25.957Z,13.57
2018-11-28T13:38:04.681Z,14.00
2018-11-28T13:40:33.522Z,11.93
2018-11-28T13:43:02.653Z,13.20
2018-11-28T13:45:33.116Z,11.87
2018-11-28T13:48:01.668Z,12.83
2018-11-28T13:50:30.215Z,14.97
2018-11-28T13:53:00.022Z,13.03
2018-11-28T13:55:39.780Z,13.90
2018-11-28T13:58:03.021Z,13.17
2018-11-28T14:00:32.677Z,14.77
2018-11-28T14:03:01.201Z,13.50
2018-11-28T14:05:29.666Z,13.37
2018-11-28T14:07:58.455Z,13.40
2018-11-28T14:10:27.206Z,14.33
2018-11-28T14:12:56.339Z,12.30
2018-11-28T14:15:24.968Z,13.00
2018-11-28T14:18:24.206Z,12.27
2018-11-28T14:20:52.697Z,12.97
2018-11-28T14:23:21.419Z,12.30
2018-11-28T14:25:49.916Z,11.67
2018-11-28T14:28:18.468Z,11.83
2018-11-28T14:30:47.607Z,11.30
2018-11-28T14:33:16.848Z,12.27
2018-11-28T14:35:45.384Z,13.47
2018-11-28T14:38:13.940Z,11.10
2018-11-28T14:40:42.434Z,13.90
2018-11-28T14:43:10.922Z,15.20
2018-11-28T14:45:39.417Z,14.83
2018-11-28T14:48:09.733Z,11.83
2018-11-28T14:50:38.193Z,13.33
2018-11-28T14:53:06.720Z,12.80
2018-11-28T14:55:37.036Z,12.73
2018-11-28T14:58:05.845Z,13.20
2018-11-28T15:00:34.422Z,11.40
2018-11-28T15:03:09.986Z,12.43
2018-11-28T15:07:49.061Z,12.10
2018-11-28T15:10:17.871Z,11.23
2018-11-28T15:12:46.392Z,11.97
2018-11-28T15:15:15.786Z,12.27
2018-11-28T15:17:44.287Z,12.93
2018-11-28T15:20:12.726Z,11.47
2018-11-28T15:22:41.333Z,11.93
2018-11-28T15:25:10.698Z,13.70
2018-11-28T15:27:39.168Z,13.53
2018-11-28T15:30:08.847Z,15.77
2018-11-28T15:32:37.397Z,11.80
2018-11-28T15:35:06.061Z,11.90
2018-11-28T15:37:34.565Z,12.17
2018-11-28T15:40:03.006Z,11.33
2018-11-28T15:42:31.509Z,12.90
2018-11-28T15:45:00.081Z,12.73
2018-11-28T15:47:29.481Z,12.97
2018-11-28T15:49:57.906Z,13.23
2018-11-28T15:52:26.362Z,12.37
2018-11-28T15:54:54.850Z,11.60
2018-11-28T15:57:23.357Z,11.93
2018-11-28T15:59:52.564Z,14.77
2018-11-28T16:02:21.081Z,10.50
2018-11-28T16:04:49.555Z,11.30
2018-11-28T16:07:18.060Z,13.07
2018-11-28T16:09:51.746Z,13.40
2018-11-28T16:12:20.182Z,12.10
2018-11-28T16:14:48.627Z,12.57
2018-11-28T16:17:17.094Z,13.23
2018-11-28T16:19:45.546Z,13.33
2018-11-28T16:22:14.037Z,13.40
2018-11-28T16:24:43.261Z,11.53
2018-11-28T16:27:12.473Z,10.50
2018-11-28T16:29:40.935Z,11.33
2018-11-28T16:32:09.545Z,16.23
2018-11-28T16:34:38.291Z,13.33
2018-11-28T16:37:07.030Z,12.43
2018-11-28T16:39:37.456Z,14.03
2018-11-28T16:42:06.303Z,14.03
2018-11-28T16:44:34.966Z,15.10
2018-11-28T16:47:03.413Z,13.87
2018-11-28T16:49:31.884Z,15.10
2018-11-28T16:52:00.321Z,14.57
2018-11-28T16:54:28.799Z,21.07
2018-11-28T16:56:57.663Z,14.90
2018-11-28T16:59:30.673Z,14.47
2018-11-28T17:01:54.879Z,14.67
2018-11-28T17:04:23.306Z,14.13
2018-11-28T17:06:51.762Z,14.13
2018-11-28T17:09:20.287Z,15.83
2018-11-28T17:11:49.702Z,15.93
2018-11-28T17:14:18.188Z,13.30
2018-11-28T17:16:46.718Z,15.30
2018-11-28T17:19:15.274Z,14.97
2018-11-28T17:21:43.718Z,16.20
2018-11-28T17:24:12.417Z,16.60
2018-11-28T17:26:40.863Z,15.93
2018-11-28T17:29:09.446Z,18.63
2018-11-28T17:31:37.929Z,17.40
2018-11-28T17:34:06.713Z,16.70
2018-11-28T17:36:35.241Z,17.23
2018-11-28T17:39:07.226Z,22.80
2018-11-28T17:41:36.290Z,20.37
2018-11-28T17:44:04.801Z,18.73
2018-11-28T17:46:33.242Z,15.60
2018-11-28T17:49:02.403Z,21.20
2018-11-28T17:51:30.918Z,17.23
2018-11-28T17:53:59.402Z,21.37
2018-11-28T17:56:27.878Z,18.77
2018-11-28T17:58:57.181Z,16.30
2018-11-28T18:01:25.692Z,16.70
2018-11-28T18:03:54.302Z,17.07
2018-11-28T18:06:22.760Z,15.90
2018-11-28T18:08:51.358Z,17.97
2018-11-28T18:11:19.795Z,19.43
2018-11-28T18:13:48.249Z,23.27
2018-11-28T18:16:17.691Z,18.20
2018-11-28T18:18:46.180Z,17.80
2018-11-28T18:21:14.670Z,18.17
2018-11-28T18:23:43.178Z,21.40
2018-11-28T18:26:13.346Z,20.83
2018-11-28T18:28:42.262Z,21.53
2018-11-28T18:31:10.705Z,21.00
2018-11-28T18:33:39.167Z,22.97
2018-11-28T18:36:07.650Z,23.40
2018-11-28T18:38:36.116Z,23.63
2018-11-28T18:41:04.622Z,20.43
2018-11-28T18:43:33.175Z,17.70
2018-11-28T18:46:02.020Z,21.87
2018-11-28T18:48:30.280Z,19.93
2018-11-28T18:50:58.760Z,18.03
2018-11-28T18:53:27.230Z,17.33
2018-11-28T18:55:55.768Z,19.57
2018-11-28T18:58:24.262Z,19.57
2018-11-28T19:00:52.772Z,17.33
2018-11-28T19:03:21.259Z,20.20
2018-11-28T19:05:49.812Z,18.30
2018-11-28T19:08:18.286Z,19.30
2018-11-28T19:10:46.830Z,21.60
2018-11-28T19:13:15.398Z,19.27
2018-11-28T19:15:44.452Z,19.67
2018-11-28T19:18:15.611Z,20.73
2018-11-28T19:20:44.156Z,20.03
2018-11-28T19:23:12.748Z,19.50
2018-11-28T19:25:42.019Z,21.83
2018-11-28T19:28:10.551Z,22.57
2018-11-28T19:30:41.097Z,20.43
2018-11-28T19:33:12.610Z,20.20
2018-11-28T19:35:41.165Z,20.53
2018-11-28T19:38:11.417Z,23.77
2018-11-28T19:40:43.312Z,25.80
2018-11-28T19:43:11.893Z,22.73
2018-11-28T19:45:41.559Z,21.93
2018-11-28T19:48:10.277Z,23.43
2018-11-28T19:50:38.828Z,22.83
2018-11-28T19:53:08.589Z,24.13
2018-11-28T19:55:37.155Z,26.50
2018-11-28T19:58:05.926Z,100.03
2018-11-28T20:00:34.989Z,23.77
2018-11-28T20:03:03.576Z,22.53
2018-11-28T20:05:32.196Z,20.50
2018-11-28T20:08:00.784Z,21.83
2018-11-28T20:10:30.159Z,23.07
2018-11-28T20:12:58.762Z,19.70
2018-11-28T20:15:28.684Z,23.33
2018-11-28T20:17:57.569Z,23.23
2018-11-28T20:20:26.068Z,21.10
2018-11-28T20:22:54.833Z,23.17
2018-11-28T20:25:24.556Z,24.17
2018-11-28T20:27:54.606Z,25.73
2018-11-28T20:30:33.550Z,24.23
2018-11-28T20:33:02.227Z,25.23
2018-11-28T20:35:31.197Z,21.63
2018-11-28T20:37:59.712Z,22.17
2018-11-28T20:40:28.197Z,23.57
2018-11-28T20:42:57.578Z,22.67
2018-11-28T20:45:26.358Z,23.40
2018-11-28T20:47:54.925Z,25.40
2018-11-28T20:50:34.334Z,26.67
2018-11-28T20:53:12.429Z,26.93
2018-11-28T20:55:41.091Z,24.90
2018-11-28T20:58:10.281Z,28.17
2018-11-28T21:00:38.732Z,22.57
2018-11-28T21:03:07.880Z,22.47
2018-11-28T21:05:37.411Z,23.07
2018-11-28T21:08:07.359Z,22.70
2018-11-28T21:10:36.790Z,29.80
2018-11-28T21:13:06.414Z,27.40
2018-11-28T21:15:34.890Z,26.07
2018-11-28T21:18:03.493Z,28.20
2018-11-28T21:20:32.099Z,27.13
2018-11-28T21:23:02.781Z,25.40
2018-11-28T21:25:31.299Z,24.50
2018-11-28T21:27:59.785Z,23.47
2018-11-28T21:30:28.278Z,23.93
2018-11-28T21:32:56.851Z,28.37
2018-11-28T21:35:33.153Z,26.07
2018-11-28T21:38:02.333Z,27.23
2018-11-28T21:40:30.813Z,24.43
2018-11-28T21:42:59.417Z,22.73
2018-11-28T21:45:28.854Z,26.03
2018-11-28T21:47:57.425Z,24.30
2018-11-28T21:50:25.909Z,26.23
2018-11-28T21:52:54.396Z,24.53
2018-11-28T21:55:24.243Z,24.90
2018-11-28T21:57:52.899Z,25.53
2018-11-28T22:00:23.543Z,25.77
2018-11-28T22:02:52.213Z,24.37
2018-11-28T22:05:20.941Z,25.07
2018-11-28T22:07:49.647Z,26.13
2018-11-28T22:10:19.083Z,26.37
2018-11-28T22:12:47.753Z,23.40
2018-11-28T22:15:17.113Z,24.07
2018-11-28T22:17:48.606Z,25.03
2018-11-28T22:20:17.755Z,26.03
2018-11-28T22:22:46.282Z,26.60
2018-11-28T22:25:17.714Z,30.20
2018-11-28T22:27:46.789Z,26.33
2018-11-28T22:30:21.253Z,24.37
2018-11-28T22:32:49.842Z,26.37
2018-11-28T22:35:18.921Z,29.93
2018-11-28T22:37:48.832Z,28.50
2018-11-28T22:40:20.711Z,25.13
2018-11-28T22:42:50.116Z,28.17
2018-11-28T22:45:21.236Z,29.00
2018-11-28T22:47:50.293Z,28.47
2018-11-28T22:50:19.017Z,30.10
2018-11-28T22:52:47.552Z,28.73
2018-11-28T22:55:16.623Z,25.13
2018-11-28T22:57:45.140Z,30.37
2018-11-28T23:00:16.725Z,27.87
2018-11-28T23:02:58.526Z,26.17
2018-11-28T23:05:29.412Z,27.17
2018-11-28T23:08:00.358Z,27.13
2018-11-28T23:10:29.051Z,24.13
2018-11-28T23:12:57.677Z,26.87
2018-11-28T23:15:26.190Z,25.60
2018-11-28T23:17:55.316Z,25.30
2018-11-28T23:20:23.274Z,25.03
2018-11-28T23:22:51.714Z,23.23
2018-11-28T23:25:20.217Z,23.30
2018-11-28T23:27:48.705Z,29.83
2018-11-28T23:30:18.071Z,26.60
2018-11-28T23:32:47.384Z,27.53
2018-11-28T23:35:15.861Z,24.17
2018-11-28T23:37:45.965Z,23.87
2018-11-28T23:40:16.350Z,22.43
2018-11-28T23:42:44.798Z,24.23
2018-11-28T23:45:13.986Z,24.87
2018-11-28T23:47:42.633Z,25.00
2018-11-28T23:50:15.062Z,25.07
2018-11-28T23:52:44.094Z,22.70
2018-11-28T23:55:28.674Z,21.40
2018-11-28T23:57:57.234Z,23.80
